sensor_id;sensor_type;location;lat;lon;timestamp;temperature;humidity
74513;DHT22;62992;52.052;8.550;2024-01-06T00:02:13;6.00;99.90
74513;DHT22;62992;52.052;8.550;2024-01-06T00:04:58;6.00;99.90
74513;DHT22;62992;52.052;8.550;2024-01-06T00:07:42;6.00;99.90
74513;DHT22;62992;52.052;8.550;2024-01-06T00:10:26;6.00;99.90
74513;DHT22;62992;52.052;8.550;2024-01-06T00:13:10;6.00;99.90
74513;DHT22;62992;52.052;8.550;2024-01-06T00:15:54;6.00;99.90
74513;DHT22;62992;52.052;8.550;2024-01-06T00:18:39;6.00;99.90
74513;DHT22;62992;52.052;8.550;2024-01-06T00:21:23;5.90;99.90
74513;DHT22;62992;52.052;8.550;2024-01-06T00:24:07;5.90;99.90
74513;DHT22;62992;52.052;8.550;2024-01-06T00:26:51;5.90;99.90
74513;DHT22;62992;52.052;8.550;2024-01-06T00:29:36;5.90;99.90
74513;DHT22;62992;52.052;8.550;2024-01-06T00:32:20;5.90;99.90
74513;DHT22;62992;52.052;8.550;2024-01-06T00:35:04;5.80;99.90
74513;DHT22;62992;52.052;8.550;2024-01-06T00:37:49;5.80;99.90
74513;DHT22;62992;52.052;8.550;2024-01-06T00:40:33;5.80;99.90
74513;DHT22;62992;52.052;8.550;2024-01-06T00:43:17;5.80;99.90
74513;DHT22;62992;52.052;8.550;2024-01-06T00:46:01;5.80;99.90
74513;DHT22;62992;52.052;8.550;2024-01-06T00:48:46;5.80;99.90
74513;DHT22;62992;52.052;8.550;2024-01-06T00:51:30;5.80;99.90
74513;DHT22;62992;52.052;8.550;2024-01-06T00:54:14;5.80;99.90
74513;DHT22;62992;52.052;8.550;2024-01-06T00:56:58;5.80;99.90
74513;DHT22;62992;52.052;8.550;2024-01-06T00:59:42;5.80;99.90
74513;DHT22;62992;52.052;8.550;2024-01-06T01:02:26;5.80;99.90
74513;DHT22;62992;52.052;8.550;2024-01-06T01:05:11;5.80;99.90
74513;DHT22;62992;52.052;8.550;2024-01-06T01:07:55;5.80;99.90
74513;DHT22;62992;52.052;8.550;2024-01-06T01:10:39;5.70;99.90
74513;DHT22;62992;52.052;8.550;2024-01-06T01:13:23;5.70;99.90
74513;DHT22;62992;52.052;8.550;2024-01-06T01:16:07;5.70;99.90
74513;DHT22;62992;52.052;8.550;2024-01-06T01:18:52;5.70;99.90
74513;DHT22;62992;52.052;8.550;2024-01-06T01:21:36;5.70;99.90
74513;DHT22;62992;52.052;8.550;2024-01-06T01:24:20;5.70;99.90
74513;DHT22;62992;52.052;8.550;2024-01-06T01:27:04;5.70;99.90
74513;DHT22;62992;52.052;8.550;2024-01-06T01:29:48;5.70;99.90
74513;DHT22;62992;52.052;8.550;2024-01-06T01:32:36;5.70;99.90
74513;DHT22;62992;52.052;8.550;2024-01-06T01:35:21;5.70;99.90
74513;DHT22;62992;52.052;8.550;2024-01-06T01:38:06;5.80;99.90
74513;DHT22;62992;52.052;8.550;2024-01-06T01:40:50;5.80;99.90
74513;DHT22;62992;52.052;8.550;2024-01-06T01:43:35;5.70;99.90
74513;DHT22;62992;52.052;8.550;2024-01-06T01:46:19;5.70;99.90
74513;DHT22;62992;52.052;8.550;2024-01-06T01:49:04;5.80;99.90
74513;DHT22;62992;52.052;8.550;2024-01-06T01:51:49;5.80;99.90
74513;DHT22;62992;52.052;8.550;2024-01-06T01:54:33;5.80;99.90
74513;DHT22;62992;52.052;8.550;2024-01-06T01:57:19;5.70;99.90
74513;DHT22;62992;52.052;8.550;2024-01-06T02:00:04;5.80;99.90
74513;DHT22;62992;52.052;8.550;2024-01-06T02:02:49;5.70;99.90
74513;DHT22;62992;52.052;8.550;2024-01-06T02:05:33;5.80;99.90
74513;DHT22;62992;52.052;8.550;2024-01-06T02:08:17;5.70;99.90
74513;DHT22;62992;52.052;8.550;2024-01-06T02:11:02;5.70;99.90
74513;DHT22;62992;52.052;8.550;2024-01-06T02:13:47;5.70;99.90
74513;DHT22;62992;52.052;8.550;2024-01-06T02:16:31;5.70;99.90
74513;DHT22;62992;52.052;8.550;2024-01-06T02:19:16;5.70;99.90
74513;DHT22;62992;52.052;8.550;2024-01-06T02:22:00;5.70;99.90
74513;DHT22;62992;52.052;8.550;2024-01-06T02:24:44;5.70;99.90
74513;DHT22;62992;52.052;8.550;2024-01-06T02:27:28;5.70;99.90
74513;DHT22;62992;52.052;8.550;2024-01-06T02:30:13;5.70;99.90
74513;DHT22;62992;52.052;8.550;2024-01-06T02:32:57;5.70;99.90
74513;DHT22;62992;52.052;8.550;2024-01-06T02:35:41;5.60;99.90
74513;DHT22;62992;52.052;8.550;2024-01-06T02:38:25;5.60;99.90
74513;DHT22;62992;52.052;8.550;2024-01-06T02:41:10;5.60;99.90
74513;DHT22;62992;52.052;8.550;2024-01-06T02:43:54;5.60;99.90
74513;DHT22;62992;52.052;8.550;2024-01-06T02:46:39;5.60;99.90
74513;DHT22;62992;52.052;8.550;2024-01-06T02:49:24;5.50;99.90
74513;DHT22;62992;52.052;8.550;2024-01-06T02:52:08;5.50;99.90
74513;DHT22;62992;52.052;8.550;2024-01-06T02:54:52;5.50;99.90
74513;DHT22;62992;52.052;8.550;2024-01-06T02:57:37;5.50;99.90
74513;DHT22;62992;52.052;8.550;2024-01-06T03:00:21;5.40;99.90
74513;DHT22;62992;52.052;8.550;2024-01-06T03:03:05;5.40;99.90
74513;DHT22;62992;52.052;8.550;2024-01-06T03:05:49;5.40;99.90
74513;DHT22;62992;52.052;8.550;2024-01-06T03:08:34;5.50;99.90
74513;DHT22;62992;52.052;8.550;2024-01-06T03:11:18;5.50;99.90
74513;DHT22;62992;52.052;8.550;2024-01-06T03:14:03;5.50;99.90
74513;DHT22;62992;52.052;8.550;2024-01-06T03:16:47;5.50;99.90
74513;DHT22;62992;52.052;8.550;2024-01-06T03:19:31;5.50;99.90
74513;DHT22;62992;52.052;8.550;2024-01-06T03:22:15;5.50;99.90
74513;DHT22;62992;52.052;8.550;2024-01-06T03:24:59;5.50;99.90
74513;DHT22;62992;52.052;8.550;2024-01-06T03:27:43;5.50;99.90
74513;DHT22;62992;52.052;8.550;2024-01-06T03:30:27;5.50;99.90
74513;DHT22;62992;52.052;8.550;2024-01-06T03:33:11;5.50;99.90
74513;DHT22;62992;52.052;8.550;2024-01-06T03:35:56;5.50;99.90
74513;DHT22;62992;52.052;8.550;2024-01-06T03:38:40;5.50;99.90
74513;DHT22;62992;52.052;8.550;2024-01-06T03:41:24;5.50;99.90
74513;DHT22;62992;52.052;8.550;2024-01-06T03:44:08;5.60;99.90
74513;DHT22;62992;52.052;8.550;2024-01-06T03:46:52;5.50;99.90
74513;DHT22;62992;52.052;8.550;2024-01-06T03:49:37;5.50;99.90
74513;DHT22;62992;52.052;8.550;2024-01-06T03:52:21;5.60;99.90
74513;DHT22;62992;52.052;8.550;2024-01-06T03:55:06;5.60;99.90
74513;DHT22;62992;52.052;8.550;2024-01-06T03:57:50;5.50;99.90
74513;DHT22;62992;52.052;8.550;2024-01-06T04:00:34;5.60;99.90
74513;DHT22;62992;52.052;8.550;2024-01-06T04:03:18;5.60;99.90
74513;DHT22;62992;52.052;8.550;2024-01-06T04:06:02;5.60;99.90
74513;DHT22;62992;52.052;8.550;2024-01-06T04:08:46;5.60;99.90
74513;DHT22;62992;52.052;8.550;2024-01-06T04:11:31;5.60;99.90
74513;DHT22;62992;52.052;8.550;2024-01-06T04:14:15;5.60;99.90
74513;DHT22;62992;52.052;8.550;2024-01-06T04:16:59;5.60;99.90
74513;DHT22;62992;52.052;8.550;2024-01-06T04:19:43;5.60;99.90
74513;DHT22;62992;52.052;8.550;2024-01-06T04:22:27;5.60;99.90
74513;DHT22;62992;52.052;8.550;2024-01-06T04:25:12;5.60;99.90
74513;DHT22;62992;52.052;8.550;2024-01-06T04:27:56;5.60;99.90
74513;DHT22;62992;52.052;8.550;2024-01-06T04:30:40;5.60;99.90
74513;DHT22;62992;52.052;8.550;2024-01-06T04:33:24;5.60;99.90
74513;DHT22;62992;52.052;8.550;2024-01-06T04:36:08;5.60;99.90
74513;DHT22;62992;52.052;8.550;2024-01-06T04:38:53;5.60;99.90
74513;DHT22;62992;52.052;8.550;2024-01-06T04:41:37;5.60;99.90
74513;DHT22;62992;52.052;8.550;2024-01-06T04:44:21;5.60;99.90
74513;DHT22;62992;52.052;8.550;2024-01-06T04:47:06;5.60;99.90
74513;DHT22;62992;52.052;8.550;2024-01-06T04:49:50;5.60;99.90
74513;DHT22;62992;52.052;8.550;2024-01-06T04:52:34;5.60;99.90
74513;DHT22;62992;52.052;8.550;2024-01-06T04:55:18;5.60;99.90
74513;DHT22;62992;52.052;8.550;2024-01-06T04:58:03;5.60;99.90
74513;DHT22;62992;52.052;8.550;2024-01-06T05:00:47;5.60;99.90
74513;DHT22;62992;52.052;8.550;2024-01-06T05:03:31;5.60;99.90
74513;DHT22;62992;52.052;8.550;2024-01-06T05:06:15;5.60;99.90
74513;DHT22;62992;52.052;8.550;2024-01-06T05:08:59;5.60;99.90
74513;DHT22;62992;52.052;8.550;2024-01-06T05:11:44;5.60;99.90
74513;DHT22;62992;52.052;8.550;2024-01-06T05:14:28;5.50;99.90
74513;DHT22;62992;52.052;8.550;2024-01-06T05:17:12;5.50;99.90
74513;DHT22;62992;52.052;8.550;2024-01-06T05:19:56;5.50;99.90
74513;DHT22;62992;52.052;8.550;2024-01-06T05:22:40;5.50;99.90
74513;DHT22;62992;52.052;8.550;2024-01-06T05:25:24;5.40;99.90
74513;DHT22;62992;52.052;8.550;2024-01-06T05:28:08;5.40;99.90
74513;DHT22;62992;52.052;8.550;2024-01-06T05:30:52;5.30;99.90
74513;DHT22;62992;52.052;8.550;2024-01-06T05:33:37;5.30;99.90
74513;DHT22;62992;52.052;8.550;2024-01-06T05:36:21;5.30;99.90
74513;DHT22;62992;52.052;8.550;2024-01-06T05:39:05;5.30;99.90
74513;DHT22;62992;52.052;8.550;2024-01-06T05:41:49;5.20;99.90
74513;DHT22;62992;52.052;8.550;2024-01-06T05:44:36;5.20;99.90
74513;DHT22;62992;52.052;8.550;2024-01-06T05:47:21;5.20;99.90
74513;DHT22;62992;52.052;8.550;2024-01-06T05:50:05;5.20;99.90
74513;DHT22;62992;52.052;8.550;2024-01-06T05:52:49;5.20;99.90
74513;DHT22;62992;52.052;8.550;2024-01-06T05:55:34;5.10;99.90
74513;DHT22;62992;52.052;8.550;2024-01-06T05:58:18;5.20;99.90
74513;DHT22;62992;52.052;8.550;2024-01-06T06:01:02;5.20;99.90
74513;DHT22;62992;52.052;8.550;2024-01-06T06:03:47;5.20;99.90
74513;DHT22;62992;52.052;8.550;2024-01-06T06:06:31;5.20;99.90
74513;DHT22;62992;52.052;8.550;2024-01-06T06:09:17;5.10;99.90
74513;DHT22;62992;52.052;8.550;2024-01-06T06:12:01;5.10;99.90
74513;DHT22;62992;52.052;8.550;2024-01-06T06:14:45;5.10;99.90
74513;DHT22;62992;52.052;8.550;2024-01-06T06:17:29;5.00;99.90
74513;DHT22;62992;52.052;8.550;2024-01-06T06:20:14;5.10;99.90
74513;DHT22;62992;52.052;8.550;2024-01-06T06:22:59;5.10;99.90
74513;DHT22;62992;52.052;8.550;2024-01-06T06:25:43;5.00;99.90
74513;DHT22;62992;52.052;8.550;2024-01-06T06:28:27;5.00;99.90
74513;DHT22;62992;52.052;8.550;2024-01-06T06:31:11;5.00;99.90
74513;DHT22;62992;52.052;8.550;2024-01-06T06:33:55;4.90;99.90
74513;DHT22;62992;52.052;8.550;2024-01-06T06:36:40;4.80;99.90
74513;DHT22;62992;52.052;8.550;2024-01-06T06:39:23;4.90;99.90
74513;DHT22;62992;52.052;8.550;2024-01-06T06:42:08;4.90;99.90
74513;DHT22;62992;52.052;8.550;2024-01-06T06:44:52;4.90;99.90
74513;DHT22;62992;52.052;8.550;2024-01-06T06:47:36;4.80;99.90
74513;DHT22;62992;52.052;8.550;2024-01-06T06:50:20;4.80;99.90
74513;DHT22;62992;52.052;8.550;2024-01-06T06:53:04;4.80;99.90
74513;DHT22;62992;52.052;8.550;2024-01-06T06:55:48;4.80;99.90
74513;DHT22;62992;52.052;8.550;2024-01-06T06:58:33;4.80;99.90
74513;DHT22;62992;52.052;8.550;2024-01-06T07:01:17;4.70;99.90
74513;DHT22;62992;52.052;8.550;2024-01-06T07:04:01;4.70;99.90
74513;DHT22;62992;52.052;8.550;2024-01-06T07:06:46;4.70;99.90
74513;DHT22;62992;52.052;8.550;2024-01-06T07:09:30;4.70;99.90
74513;DHT22;62992;52.052;8.550;2024-01-06T07:12:14;4.60;99.90
74513;DHT22;62992;52.052;8.550;2024-01-06T07:14:58;4.60;99.90
74513;DHT22;62992;52.052;8.550;2024-01-06T07:17:43;4.60;99.90
74513;DHT22;62992;52.052;8.550;2024-01-06T07:20:27;4.50;99.90
74513;DHT22;62992;52.052;8.550;2024-01-06T07:23:11;4.60;99.90
74513;DHT22;62992;52.052;8.550;2024-01-06T07:25:55;4.50;99.90
74513;DHT22;62992;52.052;8.550;2024-01-06T07:28:40;4.50;99.90
74513;DHT22;62992;52.052;8.550;2024-01-06T07:31:24;4.50;99.90
74513;DHT22;62992;52.052;8.550;2024-01-06T07:34:08;4.50;99.90
74513;DHT22;62992;52.052;8.550;2024-01-06T07:36:52;4.50;99.90
74513;DHT22;62992;52.052;8.550;2024-01-06T07:39:36;4.50;99.90
74513;DHT22;62992;52.052;8.550;2024-01-06T07:42:20;4.40;99.90
74513;DHT22;62992;52.052;8.550;2024-01-06T07:45:06;4.50;99.90
74513;DHT22;62992;52.052;8.550;2024-01-06T07:47:50;4.50;99.90
74513;DHT22;62992;52.052;8.550;2024-01-06T07:50:34;4.40;99.90
74513;DHT22;62992;52.052;8.550;2024-01-06T07:53:18;4.40;99.90
74513;DHT22;62992;52.052;8.550;2024-01-06T07:56:02;4.40;99.90
74513;DHT22;62992;52.052;8.550;2024-01-06T07:58:46;4.40;99.90
74513;DHT22;62992;52.052;8.550;2024-01-06T08:01:30;4.30;99.90
74513;DHT22;62992;52.052;8.550;2024-01-06T08:04:14;4.40;99.90
74513;DHT22;62992;52.052;8.550;2024-01-06T08:06:59;4.40;99.90
74513;DHT22;62992;52.052;8.550;2024-01-06T08:09:43;4.30;99.90
74513;DHT22;62992;52.052;8.550;2024-01-06T08:12:27;4.30;99.90
74513;DHT22;62992;52.052;8.550;2024-01-06T08:15:11;4.30;99.90
74513;DHT22;62992;52.052;8.550;2024-01-06T08:17:56;4.30;99.90
74513;DHT22;62992;52.052;8.550;2024-01-06T08:20:40;4.30;99.90
74513;DHT22;62992;52.052;8.550;2024-01-06T08:23:24;4.30;99.90
74513;DHT22;62992;52.052;8.550;2024-01-06T08:26:08;4.30;99.90
74513;DHT22;62992;52.052;8.550;2024-01-06T08:28:52;4.30;99.90
74513;DHT22;62992;52.052;8.550;2024-01-06T08:31:37;4.30;99.90
74513;DHT22;62992;52.052;8.550;2024-01-06T08:34:21;4.30;99.90
74513;DHT22;62992;52.052;8.550;2024-01-06T08:37:05;4.30;99.90
74513;DHT22;62992;52.052;8.550;2024-01-06T08:39:49;4.30;99.90
74513;DHT22;62992;52.052;8.550;2024-01-06T08:42:33;4.30;99.90
74513;DHT22;62992;52.052;8.550;2024-01-06T08:45:18;4.20;99.90
74513;DHT22;62992;52.052;8.550;2024-01-06T08:48:02;4.10;99.90
74513;DHT22;62992;52.052;8.550;2024-01-06T08:50:46;4.10;99.90
74513;DHT22;62992;52.052;8.550;2024-01-06T08:53:30;4.10;99.90
74513;DHT22;62992;52.052;8.550;2024-01-06T08:56:14;4.10;99.90
74513;DHT22;62992;52.052;8.550;2024-01-06T08:58:59;4.20;99.90
74513;DHT22;62992;52.052;8.550;2024-01-06T09:01:43;4.10;99.90
74513;DHT22;62992;52.052;8.550;2024-01-06T09:04:28;4.10;99.90
74513;DHT22;62992;52.052;8.550;2024-01-06T09:07:12;4.10;99.90
74513;DHT22;62992;52.052;8.550;2024-01-06T09:09:56;4.10;99.90
74513;DHT22;62992;52.052;8.550;2024-01-06T09:12:40;4.10;99.90
74513;DHT22;62992;52.052;8.550;2024-01-06T09:15:24;4.10;99.90
74513;DHT22;62992;52.052;8.550;2024-01-06T09:18:09;4.00;99.90
74513;DHT22;62992;52.052;8.550;2024-01-06T09:20:53;4.10;99.90
74513;DHT22;62992;52.052;8.550;2024-01-06T09:23:37;4.00;99.90
74513;DHT22;62992;52.052;8.550;2024-01-06T09:26:21;4.00;99.90
74513;DHT22;62992;52.052;8.550;2024-01-06T09:29:05;4.10;99.90
74513;DHT22;62992;52.052;8.550;2024-01-06T09:31:50;4.00;99.90
74513;DHT22;62992;52.052;8.550;2024-01-06T09:34:34;4.00;99.90
74513;DHT22;62992;52.052;8.550;2024-01-06T09:37:18;4.00;99.90
74513;DHT22;62992;52.052;8.550;2024-01-06T09:40:02;4.00;99.90
74513;DHT22;62992;52.052;8.550;2024-01-06T09:42:46;4.00;99.90
74513;DHT22;62992;52.052;8.550;2024-01-06T09:45:30;4.00;99.90
74513;DHT22;62992;52.052;8.550;2024-01-06T09:48:15;3.90;99.90
74513;DHT22;62992;52.052;8.550;2024-01-06T09:51:01;4.00;99.90
74513;DHT22;62992;52.052;8.550;2024-01-06T09:53:51;3.90;99.90
74513;DHT22;62992;52.052;8.550;2024-01-06T09:56:36;3.90;99.90
74513;DHT22;62992;52.052;8.550;2024-01-06T09:59:20;3.90;99.90
74513;DHT22;62992;52.052;8.550;2024-01-06T10:02:05;3.90;99.90
74513;DHT22;62992;52.052;8.550;2024-01-06T10:04:49;3.90;99.90
74513;DHT22;62992;52.052;8.550;2024-01-06T10:07:33;3.90;99.90
74513;DHT22;62992;52.052;8.550;2024-01-06T10:10:17;3.90;99.90
74513;DHT22;62992;52.052;8.550;2024-01-06T10:13:01;3.90;99.90
74513;DHT22;62992;52.052;8.550;2024-01-06T10:15:45;3.90;99.90
74513;DHT22;62992;52.052;8.550;2024-01-06T10:18:30;3.90;99.90
74513;DHT22;62992;52.052;8.550;2024-01-06T10:21:14;3.90;99.90
74513;DHT22;62992;52.052;8.550;2024-01-06T10:24:01;3.90;99.90
74513;DHT22;62992;52.052;8.550;2024-01-06T10:26:45;3.90;99.90
74513;DHT22;62992;52.052;8.550;2024-01-06T10:29:29;3.90;99.90
74513;DHT22;62992;52.052;8.550;2024-01-06T10:32:13;4.00;99.90
74513;DHT22;62992;52.052;8.550;2024-01-06T10:34:57;4.00;99.90
74513;DHT22;62992;52.052;8.550;2024-01-06T10:37:42;4.00;99.90
74513;DHT22;62992;52.052;8.550;2024-01-06T10:40:26;3.90;99.90
74513;DHT22;62992;52.052;8.550;2024-01-06T10:43:10;3.90;99.90
74513;DHT22;62992;52.052;8.550;2024-01-06T10:45:58;3.90;99.90
74513;DHT22;62992;52.052;8.550;2024-01-06T10:48:42;3.90;99.90
74513;DHT22;62992;52.052;8.550;2024-01-06T10:51:28;3.90;99.90
74513;DHT22;62992;52.052;8.550;2024-01-06T10:54:14;3.90;99.90
74513;DHT22;62992;52.052;8.550;2024-01-06T10:56:59;3.80;99.90
74513;DHT22;62992;52.052;8.550;2024-01-06T10:59:45;3.80;99.90
74513;DHT22;62992;52.052;8.550;2024-01-06T11:02:32;3.90;99.90
74513;DHT22;62992;52.052;8.550;2024-01-06T11:05:17;3.90;99.90
74513;DHT22;62992;52.052;8.550;2024-01-06T11:08:03;3.90;99.90
74513;DHT22;62992;52.052;8.550;2024-01-06T11:10:48;3.90;99.90
74513;DHT22;62992;52.052;8.550;2024-01-06T11:13:32;3.90;99.90
74513;DHT22;62992;52.052;8.550;2024-01-06T11:16:37;3.90;99.90
74513;DHT22;62992;52.052;8.550;2024-01-06T11:20:03;3.90;99.90
74513;DHT22;62992;52.052;8.550;2024-01-06T11:22:29;3.80;99.90
74513;DHT22;62992;52.052;8.550;2024-01-06T11:25:19;3.90;99.90
74513;DHT22;62992;52.052;8.550;2024-01-06T11:28:04;3.90;99.90
74513;DHT22;62992;52.052;8.550;2024-01-06T11:31:04;3.90;99.90
74513;DHT22;62992;52.052;8.550;2024-01-06T11:33:49;3.90;99.90
74513;DHT22;62992;52.052;8.550;2024-01-06T11:36:34;3.90;99.90
74513;DHT22;62992;52.052;8.550;2024-01-06T11:39:40;3.90;99.90
74513;DHT22;62992;52.052;8.550;2024-01-06T11:42:31;3.90;99.90
74513;DHT22;62992;52.052;8.550;2024-01-06T11:45:15;3.90;99.90
74513;DHT22;62992;52.052;8.550;2024-01-06T11:48:00;3.90;99.90
74513;DHT22;62992;52.052;8.550;2024-01-06T11:50:45;3.90;99.90
74513;DHT22;62992;52.052;8.550;2024-01-06T11:53:29;4.00;99.90
74513;DHT22;62992;52.052;8.550;2024-01-06T11:56:14;4.00;99.90
74513;DHT22;62992;52.052;8.550;2024-01-06T11:58:59;4.00;99.90
74513;DHT22;62992;52.052;8.550;2024-01-06T12:01:45;4.00;99.90
74513;DHT22;62992;52.052;8.550;2024-01-06T12:04:29;4.00;99.90
74513;DHT22;62992;52.052;8.550;2024-01-06T12:07:13;4.00;99.90
74513;DHT22;62992;52.052;8.550;2024-01-06T12:10:02;4.10;99.90
74513;DHT22;62992;52.052;8.550;2024-01-06T12:15:40;4.00;99.90
74513;DHT22;62992;52.052;8.550;2024-01-06T12:18:25;4.00;99.90
74513;DHT22;62992;52.052;8.550;2024-01-06T12:21:09;4.00;99.90
74513;DHT22;62992;52.052;8.550;2024-01-06T12:23:53;4.00;99.90
74513;DHT22;62992;52.052;8.550;2024-01-06T12:26:37;4.00;99.90
74513;DHT22;62992;52.052;8.550;2024-01-06T12:29:21;4.00;99.90
74513;DHT22;62992;52.052;8.550;2024-01-06T12:32:06;4.00;99.90
74513;DHT22;62992;52.052;8.550;2024-01-06T12:34:50;4.00;99.90
74513;DHT22;62992;52.052;8.550;2024-01-06T12:37:35;4.00;99.90
74513;DHT22;62992;52.052;8.550;2024-01-06T12:40:19;4.00;99.90
74513;DHT22;62992;52.052;8.550;2024-01-06T12:43:06;4.00;99.90
74513;DHT22;62992;52.052;8.550;2024-01-06T12:45:50;4.10;99.90
74513;DHT22;62992;52.052;8.550;2024-01-06T12:48:36;4.10;99.90
74513;DHT22;62992;52.052;8.550;2024-01-06T12:51:21;4.10;99.90
74513;DHT22;62992;52.052;8.550;2024-01-06T12:54:05;4.10;99.90
74513;DHT22;62992;52.052;8.550;2024-01-06T12:56:49;4.10;99.90
74513;DHT22;62992;52.052;8.550;2024-01-06T12:59:33;4.20;99.90
74513;DHT22;62992;52.052;8.550;2024-01-06T13:02:18;4.20;99.90
74513;DHT22;62992;52.052;8.550;2024-01-06T13:05:02;4.10;99.90
74513;DHT22;62992;52.052;8.550;2024-01-06T13:07:46;4.10;99.90
74513;DHT22;62992;52.052;8.550;2024-01-06T13:10:30;4.20;99.90
74513;DHT22;62992;52.052;8.550;2024-01-06T13:13:14;4.10;99.90
74513;DHT22;62992;52.052;8.550;2024-01-06T13:15:59;4.10;99.90
74513;DHT22;62992;52.052;8.550;2024-01-06T13:18:44;4.10;99.90
74513;DHT22;62992;52.052;8.550;2024-01-06T13:21:28;4.10;99.90
74513;DHT22;62992;52.052;8.550;2024-01-06T13:24:13;4.10;99.90
74513;DHT22;62992;52.052;8.550;2024-01-06T13:26:57;4.10;99.90
74513;DHT22;62992;52.052;8.550;2024-01-06T13:29:42;4.10;99.90
74513;DHT22;62992;52.052;8.550;2024-01-06T13:32:26;4.10;99.90
74513;DHT22;62992;52.052;8.550;2024-01-06T13:35:11;4.00;99.90
74513;DHT22;62992;52.052;8.550;2024-01-06T13:37:55;4.00;99.90
74513;DHT22;62992;52.052;8.550;2024-01-06T13:40:40;4.00;99.90
74513;DHT22;62992;52.052;8.550;2024-01-06T13:43:24;4.00;99.90
74513;DHT22;62992;52.052;8.550;2024-01-06T13:46:08;3.90;99.90
74513;DHT22;62992;52.052;8.550;2024-01-06T13:48:52;3.80;99.90
74513;DHT22;62992;52.052;8.550;2024-01-06T13:51:36;3.90;99.90
74513;DHT22;62992;52.052;8.550;2024-01-06T13:54:21;3.90;99.90
74513;DHT22;62992;52.052;8.550;2024-01-06T13:57:05;3.80;99.90
74513;DHT22;62992;52.052;8.550;2024-01-06T13:59:49;3.80;99.90
74513;DHT22;62992;52.052;8.550;2024-01-06T14:02:34;3.80;99.90
74513;DHT22;62992;52.052;8.550;2024-01-06T14:05:18;3.80;99.90
74513;DHT22;62992;52.052;8.550;2024-01-06T14:08:03;3.80;99.90
74513;DHT22;62992;52.052;8.550;2024-01-06T14:10:47;3.80;99.90
74513;DHT22;62992;52.052;8.550;2024-01-06T14:13:31;3.90;99.90
74513;DHT22;62992;52.052;8.550;2024-01-06T14:16:15;3.90;99.90
74513;DHT22;62992;52.052;8.550;2024-01-06T14:18:59;3.80;99.90
74513;DHT22;62992;52.052;8.550;2024-01-06T14:21:44;3.80;99.90
74513;DHT22;62992;52.052;8.550;2024-01-06T14:24:28;3.80;99.90
74513;DHT22;62992;52.052;8.550;2024-01-06T14:27:12;3.80;99.90
74513;DHT22;62992;52.052;8.550;2024-01-06T14:29:56;3.80;99.90
74513;DHT22;62992;52.052;8.550;2024-01-06T14:32:41;3.90;99.90
74513;DHT22;62992;52.052;8.550;2024-01-06T14:35:25;3.90;99.90
74513;DHT22;62992;52.052;8.550;2024-01-06T14:38:09;3.80;99.90
74513;DHT22;62992;52.052;8.550;2024-01-06T14:40:55;3.90;99.90
74513;DHT22;62992;52.052;8.550;2024-01-06T14:43:39;3.90;99.90
74513;DHT22;62992;52.052;8.550;2024-01-06T14:46:23;3.90;99.90
74513;DHT22;62992;52.052;8.550;2024-01-06T14:49:08;4.00;99.90
74513;DHT22;62992;52.052;8.550;2024-01-06T14:51:52;3.90;99.90
74513;DHT22;62992;52.052;8.550;2024-01-06T14:54:36;3.90;99.90
74513;DHT22;62992;52.052;8.550;2024-01-06T14:57:20;3.90;99.90
74513;DHT22;62992;52.052;8.550;2024-01-06T15:00:05;4.00;99.90
74513;DHT22;62992;52.052;8.550;2024-01-06T15:02:49;3.90;99.90
74513;DHT22;62992;52.052;8.550;2024-01-06T15:05:33;3.90;99.90
74513;DHT22;62992;52.052;8.550;2024-01-06T15:08:17;3.90;99.90
74513;DHT22;62992;52.052;8.550;2024-01-06T15:11:02;3.90;99.90
74513;DHT22;62992;52.052;8.550;2024-01-06T15:13:47;3.90;99.90
74513;DHT22;62992;52.052;8.550;2024-01-06T15:16:31;3.80;99.90
74513;DHT22;62992;52.052;8.550;2024-01-06T15:19:15;3.90;99.90
74513;DHT22;62992;52.052;8.550;2024-01-06T15:21:59;3.90;99.90
74513;DHT22;62992;52.052;8.550;2024-01-06T15:24:44;3.80;99.90
74513;DHT22;62992;52.052;8.550;2024-01-06T15:27:28;3.80;99.90
74513;DHT22;62992;52.052;8.550;2024-01-06T15:30:12;3.70;99.90
74513;DHT22;62992;52.052;8.550;2024-01-06T15:32:56;3.70;99.90
74513;DHT22;62992;52.052;8.550;2024-01-06T15:35:40;3.70;99.90
74513;DHT22;62992;52.052;8.550;2024-01-06T15:38:25;3.60;99.90
74513;DHT22;62992;52.052;8.550;2024-01-06T15:41:11;3.60;99.90
74513;DHT22;62992;52.052;8.550;2024-01-06T15:43:55;3.70;99.90
74513;DHT22;62992;52.052;8.550;2024-01-06T15:46:39;3.60;99.90
74513;DHT22;62992;52.052;8.550;2024-01-06T15:49:24;3.60;99.90
74513;DHT22;62992;52.052;8.550;2024-01-06T15:52:08;3.60;99.90
74513;DHT22;62992;52.052;8.550;2024-01-06T15:54:52;3.60;99.90
74513;DHT22;62992;52.052;8.550;2024-01-06T15:57:37;3.60;99.90
74513;DHT22;62992;52.052;8.550;2024-01-06T16:00:22;3.50;99.90
74513;DHT22;62992;52.052;8.550;2024-01-06T16:03:06;3.40;99.90
74513;DHT22;62992;52.052;8.550;2024-01-06T16:05:50;3.30;99.90
74513;DHT22;62992;52.052;8.550;2024-01-06T16:08:36;3.20;99.90
74513;DHT22;62992;52.052;8.550;2024-01-06T16:11:20;3.20;99.90
74513;DHT22;62992;52.052;8.550;2024-01-06T16:14:04;3.10;99.90
74513;DHT22;62992;52.052;8.550;2024-01-06T16:16:48;3.10;99.90
74513;DHT22;62992;52.052;8.550;2024-01-06T16:19:32;3.10;99.90
74513;DHT22;62992;52.052;8.550;2024-01-06T16:22:17;3.20;99.90
74513;DHT22;62992;52.052;8.550;2024-01-06T16:25:02;3.10;99.90
74513;DHT22;62992;52.052;8.550;2024-01-06T16:27:47;3.00;99.90
74513;DHT22;62992;52.052;8.550;2024-01-06T16:30:31;2.90;99.90
74513;DHT22;62992;52.052;8.550;2024-01-06T16:33:15;2.90;99.90
74513;DHT22;62992;52.052;8.550;2024-01-06T16:35:59;3.00;99.90
74513;DHT22;62992;52.052;8.550;2024-01-06T16:38:43;3.00;99.90
74513;DHT22;62992;52.052;8.550;2024-01-06T16:41:27;3.00;99.90
74513;DHT22;62992;52.052;8.550;2024-01-06T16:44:13;2.90;99.90
74513;DHT22;62992;52.052;8.550;2024-01-06T16:46:57;2.80;99.90
74513;DHT22;62992;52.052;8.550;2024-01-06T16:49:42;2.80;99.90
74513;DHT22;62992;52.052;8.550;2024-01-06T16:52:26;2.80;99.90
74513;DHT22;62992;52.052;8.550;2024-01-06T16:55:10;2.70;99.90
74513;DHT22;62992;52.052;8.550;2024-01-06T16:57:55;2.60;99.90
74513;DHT22;62992;52.052;8.550;2024-01-06T17:00:44;2.60;99.90
74513;DHT22;62992;52.052;8.550;2024-01-06T17:03:28;2.60;99.90
74513;DHT22;62992;52.052;8.550;2024-01-06T17:06:13;2.50;99.90
74513;DHT22;62992;52.052;8.550;2024-01-06T17:08:57;2.50;99.90
74513;DHT22;62992;52.052;8.550;2024-01-06T17:11:41;2.50;99.90
74513;DHT22;62992;52.052;8.550;2024-01-06T17:14:26;2.30;99.90
74513;DHT22;62992;52.052;8.550;2024-01-06T17:17:11;2.30;99.90
74513;DHT22;62992;52.052;8.550;2024-01-06T17:19:55;2.30;99.90
74513;DHT22;62992;52.052;8.550;2024-01-06T17:22:39;2.30;99.90
74513;DHT22;62992;52.052;8.550;2024-01-06T17:25:24;2.30;99.90
74513;DHT22;62992;52.052;8.550;2024-01-06T17:28:09;2.30;99.90
74513;DHT22;62992;52.052;8.550;2024-01-06T17:30:53;2.30;99.90
74513;DHT22;62992;52.052;8.550;2024-01-06T17:33:37;2.30;99.90
74513;DHT22;62992;52.052;8.550;2024-01-06T17:36:21;2.20;99.90
74513;DHT22;62992;52.052;8.550;2024-01-06T17:39:06;2.30;99.90